Latest Weather Observations for Mount Keith

IDW60801

Issued at 10:03 am WST Monday 25 July 2016 (issued every 30 minutes, with the page automatically refreshed every 10 minutes)

About weather observations | Map of weather stations | Latest weather observations for WA | Other Formats
Station Details ID: 512019 Name: MOUNT KEITH Lat: -27.29 Lon: 120.55 Height: 542.33 m
Data from the previous 72 hours. | See also: Recent months for locations in Western Australia
Date/Time
WST
Temp
°C
App
Temp
°C
Dew
Point
°C
Rel
Hum
%
Delta-T
°C
Wind Press
QNH
hPa
Press
MSL
hPa
Rain since
9am
mm
Dir  Spd
km/h
Gust
km/h
Spd
kts
Gust
kts
25/10:00am 11.8 8.1 2.3 52 4.2 ENE 11 17 6 9 1026.3 1026.0 0.0
25/09:30am 11.0 7.0 2.6 56 3.7 ENE 13 17 7 9 1026.3 1026.0 0.0
25/09:00am 9.4 5.8 2.9 64 2.9 ENE 11 13 6 7 1026.4 1026.1 0.0
25/08:30am 8.4 5.7 3.7 72 2.1 ENE 7 9 4 5 1026.1 1025.8 0.0
25/08:00am 6.5 3.3 3.3 80 1.4 E 9 11 5 6 1025.9 1025.5 0.0
25/07:30am 4.0 2.6 3.4 96 0.3 CALM 0 0 0 0 1025.7 1025.3 0.0
25/07:00am 2.0 0.3 2.0 100 0.0 CALM 0 0 0 0 1025.5 1025.1 0.0
25/06:30am 2.0 0.3 2.0 100 0.0 CALM 0 0 0 0 1025.0 1024.6 0.0
25/06:00am 2.3 0.7 2.3 100 0.0 CALM 0 0 0 0 1024.6 1024.3 0.0
25/05:30am 2.3 0.3 2.2 99 0.0 SSE 2 6 1 3 1024.4 1024.1 0.0
25/05:00am 2.8 0.5 2.5 98 0.1 SSE 4 7 2 4 1024.3 1023.9 0.0
25/04:30am 2.9 -0.1 2.3 96 0.2 SSE 7 7 4 4 1024.2 1023.8 0.0
25/04:00am 3.8 1.0 2.9 94 0.4 SSE 7 9 4 5 1024.3 1023.9 0.0
25/03:30am 4.0 0.8 3.0 93 0.4 SSE 9 9 5 5 1024.3 1023.9 0.0
25/03:00am 4.0 1.2 3.3 95 0.3 SSE 7 9 4 5 1024.3 1023.9 0.0
25/02:30am 4.5 1.4 3.5 93 0.4 SSE 9 11 5 6 1024.4 1024.1 0.0
25/02:00am 4.9 1.4 3.6 91 0.6 SSE 11 15 6 8 1024.5 1024.2 0.0
25/01:30am 4.7 2.0 3.7 93 0.4 S 7 9 4 5 1024.6 1024.3 0.0
25/01:00am 4.8 3.5 3.9 94 0.4 CALM 0 0 0 0 1024.6 1024.3 0.0
25/12:30am 5.4 2.9 3.7 89 0.7 S 6 7 3 4 1024.6 1024.3 0.0
25/12:00am 5.3 3.3 4.3 93 0.4 SSE 4 7 2 4 1025.1 1024.7 0.0
 
Date/Time
WST
Temp
°C
App
Temp
°C
Dew
Point
°C
Rel
Hum
%
Delta-T
°C
Wind Press
QNH
hPa
Press
MSL
hPa
Rain since
9am
mm
Dir  Spd
km/h
Gust
km/h
Spd
kts
Gust
kts
24/11:30pm 5.1 3.9 4.4 95 0.3 CALM 0 0 0 0 1025.1 1024.7 0.0
24/11:00pm 5.6 4.3 4.2 91 0.6 CALM 0 6 0 3 1025.3 1024.9 0.0
24/10:30pm 6.0 4.0 4.5 90 0.7 SE 4 6 2 3 1025.2 1024.8 0.0
24/10:00pm 7.0 4.6 4.3 83 1.2 SE 6 7 3 4 1025.2 1024.8 0.0
24/09:30pm 7.5 5.1 4.1 79 1.5 SE 6 7 3 4 1025.3 1024.9 0.0
24/09:00pm 8.1 5.5 4.3 77 1.7 SE 7 9 4 5 1025.2 1024.8 0.0
24/08:30pm 9.1 6.7 4.1 71 2.3 SE 6 7 3 4 1025.2 1024.8 0.0
24/08:00pm 10.1 7.5 4.0 66 2.8 SSE 7 9 4 5 1025.0 1024.6 0.0
24/07:30pm 10.5 7.1 4.0 64 3.0 SSE 11 15 6 8 1024.9 1024.5 0.0
24/07:00pm 10.7 7.3 4.2 64 3.0 SSE 11 13 6 7 1024.7 1024.4 0.0
24/06:30pm 11.0 7.3 4.2 63 3.1 SSE 13 15 7 8 1024.3 1023.9 0.0
24/06:00pm 11.4 8.0 4.2 61 3.3 SSE 11 15 6 8 1023.8 1023.4 0.0
24/05:30pm 11.9 7.8 4.2 59 3.6 SSE 15 17 8 9 1023.7 1023.3 0.0
24/05:00pm 12.7 8.2 4.2 56 4.0 SSE 17 20 9 11 1023.5 1023.1 0.0
24/04:30pm 13.4 8.9 4.3 54 4.3 SSE 17 24 9 13 1023.1 1022.7 0.0
24/04:00pm 13.4 8.9 4.0 53 4.4 SSE 17 20 9 11 1023.0 1022.6 0.0
24/03:30pm 13.4 8.9 4.0 53 4.4 SE 17 22 9 12 1022.8 1022.5 0.0
24/03:00pm 13.6 8.7 3.9 52 4.5 SE 19 28 10 15 1022.8 1022.5 0.0
24/02:30pm 14.1 9.6 4.1 51 4.7 SE 17 26 9 14 1023.1 1022.7 0.0
24/02:00pm 13.6 8.5 3.9 52 4.5 SE 20 28 11 15 1023.3 1022.9 0.0
24/01:30pm 14.0 8.9 4.3 52 4.6 SE 20 30 11 16 1023.5 1023.1 0.0
24/01:00pm 14.5 10.0 4.2 50 4.9 ESE 17 24 9 13 1023.8 1023.4 0.0
24/12:30pm 13.3 9.0 3.4 51 4.6 ESE 15 26 8 14 1024.6 1024.3 0.0
24/12:00pm 13.4 9.3 4.6 55 4.2 ESE 15 22 8 12 1025.4 1025.0 0.0
24/11:30am 11.9 6.1 4.2 59 3.6 SE 24 30 13 16 1025.7 1025.3 0.0
24/11:00am 11.6 6.2 4.6 62 3.3 SE 22 35 12 19 1026.0 1025.7 0.0
24/10:30am 11.3 5.9 4.7 64 3.1 ESE 22 30 12 16 1026.2 1025.9 0.0
24/10:00am 10.9 5.6 5.0 67 2.8 ESE 22 32 12 17 1026.5 1026.2 0.0
24/09:30am 10.3 5.4 5.1 70 2.4 ESE 20 28 11 15 1026.4 1026.1 0.0
24/09:00am 9.6 4.6 4.8 72 2.2 ESE 20 32 11 17 1026.3 1026.0 0.0
24/08:30am 8.4 3.4 4.4 76 1.8 SE 20 28 11 15 1026.1 1025.8 0.0
24/08:00am 7.0 2.3 2.9 75 1.8 SE 17 26 9 14 1025.8 1025.4 0.0
24/07:30am 4.8 1.5 2.2 83 1.1 SSE 9 13 5 7 1025.4 1025.0 0.0
24/07:00am 2.0 0.3 1.7 98 0.1 CALM 0 0 0 0 1025.0 1024.6 0.0
24/06:30am 2.1 0.3 1.5 96 0.2 CALM 0 0 0 0 1024.4 1024.1 0.0
24/06:00am 2.6 0.8 1.3 91 0.5 CALM 0 0 0 0 1024.4 1024.1 0.0
24/05:30am 3.2 1.4 1.3 87 0.8 CALM 0 4 0 2 1024.0 1023.6 0.0
24/05:00am 3.8 0.7 1.2 83 1.0 SSE 7 9 4 5 1023.6 1023.2 0.0
24/04:30am 4.1 0.6 1.1 81 1.2 SSE 9 11 5 6 1023.3 1022.9 0.0
24/04:00am 4.5 1.0 1.4 80 1.3 S 9 11 5 6 1023.4 1023.0 0.0
24/03:30am 5.0 0.8 1.5 78 1.4 S 13 15 7 8 1023.2 1022.8 0.0
24/03:00am 4.6 1.2 1.8 82 1.1 S 9 11 5 6 1023.2 1022.8 0.0
24/02:30am 5.4 2.0 2.1 79 1.4 S 9 13 5 7 1023.1 1022.7 0.0
24/02:00am 5.9 2.2 2.2 77 1.5 S 11 13 6 7 1023.2 1022.8 0.0
24/01:30am 6.1 2.4 2.4 77 1.6 S 11 13 6 7 1023.5 1023.1 0.0
24/01:00am 6.3 3.0 2.4 76 1.6 S 9 9 5 5 1023.4 1023.0 0.0
24/12:30am 6.8 3.1 2.5 74 1.8 S 11 15 6 8 1023.2 1022.8 0.0
24/12:00am 7.1 3.8 2.6 73 1.9 S 9 13 5 7 1023.4 1023.0 0.0
 
Date/Time
WST
Temp
°C
App
Temp
°C
Dew
Point
°C
Rel
Hum
%
Delta-T
°C
Wind Press
QNH
hPa
Press
MSL
hPa
Rain since
9am
mm
Dir  Spd
km/h
Gust
km/h
Spd
kts
Gust
kts
23/11:30pm 7.2 3.9 2.5 72 2.0 S 9 11 5 6 1023.4 1023.0 0.0
23/11:00pm 7.7 4.8 2.6 70 2.2 S 7 9 4 5 1023.6 1023.2 0.0
23/10:30pm 8.1 4.4 2.6 68 2.4 S 11 15 6 8 1023.3 1022.9 0.0
23/10:00pm 8.6 5.3 2.4 65 2.7 S 9 13 5 7 1023.4 1023.0 0.0
23/09:30pm 9.5 5.4 2.1 60 3.2 S 13 17 7 9 1023.2 1022.8 0.0
23/09:00pm 9.8 6.1 2.2 59 3.3 SSW 11 17 6 9 1023.0 1022.6 0.0
23/08:30pm 10.0 6.0 2.6 60 3.3 S 13 17 7 9 1022.6 1022.2 0.0
23/08:00pm 10.2 6.7 3.5 63 3.0 SSW 11 15 6 8 1022.6 1022.2 0.0
23/07:30pm 11.1 7.2 3.2 58 3.6 SSW 13 17 7 9 1022.4 1022.0 0.0
23/07:00pm 12.0 7.7 3.0 54 4.1 SSW 15 20 8 11 1022.0 1021.6 0.0
23/06:30pm 12.5 9.1 4.0 56 4.0 SW 11 13 6 7 1021.7 1021.3 0.0
23/06:00pm 13.3 10.2 3.4 51 4.6 SW 9 13 5 7 1021.4 1021.0 0.0
23/05:30pm 13.8 9.6 3.6 50 4.8 SW 15 22 8 12 1021.5 1021.1 0.0
23/05:00pm 14.4 9.7 3.2 47 5.2 WSW 17 22 9 12 1021.2 1020.7 0.0
23/04:30pm 14.8 10.2 3.6 47 5.3 WSW 17 22 9 12 1020.7 1020.3 0.0
23/04:00pm 15.3 10.3 3.5 45 5.5 WSW 19 26 10 14 1020.8 1020.4 0.0
23/03:30pm 15.4 10.2 3.5 45 5.6 W 20 30 11 16 1021.0 1020.5 0.0
23/03:00pm 15.1 10.4 3.3 45 5.5 WSW 17 30 9 16 1021.3 1020.9 0.0
23/02:30pm 15.3 10.1 3.5 45 5.6 W 20 30 11 16 1021.2 1020.7 0.0
23/02:00pm 14.7 11.5 2.9 45 5.4 SW 9 20 5 11 1021.1 1020.6 0.0
23/01:30pm 14.0 10.5 3.5 49 4.9 NNW 11 17 6 9 1021.5 1021.1 0.0
23/01:00pm 13.7 9.4 3.2 49 4.8 W 15 20 8 11 1021.7 1021.3 0.0
23/12:30pm 12.9 9.2 2.5 49 4.7 W 11 22 6 12 1021.8 1021.4 0.0
23/12:00pm 12.7 10.0 2.8 51 4.5 NNW 6 9 3 5 1022.2 1021.8 0.0
23/11:30am 11.9 9.2 2.9 54 4.1 NNW 6 11 3 6 1022.5 1022.1 0.0
23/11:00am 11.3 8.6 2.9 56 3.8 N 6 9 3 5 1023.1 1022.7 0.0
23/10:30am 10.4 7.6 3.2 61 3.2 N 7 11 4 6 1023.0 1022.6 0.0
23/10:00am 10.0 8.8 4.6 69 2.5 CALM 0 4 0 2 1023.3 1022.9 0.0
23/09:30am 9.5 7.9 4.3 70 2.4 WNW 2 9 1 5 1023.9 1023.5 0.0
23/09:00am 9.0 6.5 4.8 75 1.9 W 7 11 4 6 1024.0 1023.6 0.0
23/08:30am 8.3 6.2 5.6 83 1.3 WNW 6 7 3 4 1023.4 1023.0 0.0
23/08:00am 7.8 5.7 5.6 86 1.0 SE 6 6 3 3 1023.0 1022.6 0.0
23/07:30am 7.4 5.2 6.2 92 0.6 W 7 9 4 5 1023.0 1022.6 0.0
23/07:00am 7.3 5.2 5.6 89 0.8 NNW 6 9 3 5 1022.3 1021.9 0.0
23/06:42am 7.2 5.0 5.3 88 0.9 SW 6 13 3 7 1020.7 1020.3 0.0
23/06:30am 7.4 4.3 5.4 87 0.9 SW 11 17 6 9 1022.8 1022.5 0.0
23/06:00am 6.6 4.5 6.0 96 0.3 W 6 9 3 5 1021.9 1021.5 0.0
23/05:30am 6.6 3.9 5.6 93 0.5 WNW 9 11 5 6 1022.5 1022.1 0.0
23/05:00am 6.5 4.8 5.8 95 0.3 W 4 6 2 3 1021.6 1021.2 0.0
23/04:30am 6.4 3.8 6.0 97 0.2 WNW 9 9 5 5 1022.3 1021.9 0.0
23/04:00am 6.8 5.8 5.7 93 0.5 CALM 0 7 0 4 1022.2 1021.8 0.0
23/03:30am 6.9 4.6 5.7 92 0.6 WSW 7 9 4 5 1022.0 1021.6 0.0
23/03:00am 6.6 4.3 5.9 95 0.3 W 7 9 4 5 1022.6 1022.2 0.0
23/02:30am 6.6 5.7 6.0 96 0.3 CALM 0 0 0 0 1022.3 1021.9 0.0
23/02:00am 6.6 5.7 6.0 96 0.3 CALM 0 0 0 0 1021.9 1021.5 0.0
23/01:30am 6.6 4.9 6.0 96 0.3 WNW 4 6 2 3 1022.3 1021.9 0.0
23/01:00am 6.4 4.3 5.7 95 0.3 WNW 6 6 3 3 1022.8 1022.5 0.0
23/12:30am 6.4 4.2 5.5 94 0.4 WNW 6 7 3 4 1022.5 1022.1 0.0
23/12:00am 6.2 5.1 5.2 93 0.5 CALM 0 0 0 0 1022.5 1022.1 0.0
 
Date/Time
WST
Temp
°C
App
Temp
°C
Dew
Point
°C
Rel
Hum
%
Delta-T
°C
Wind Press
QNH
hPa
Press
MSL
hPa
Rain since
9am
mm
Dir  Spd
km/h
Gust
km/h
Spd
kts
Gust
kts
22/11:30pm 6.5 4.3 5.1 91 0.6 S 6 6 3 3 1023.1 1022.7 0.0
22/11:00pm 6.9 5.0 4.9 87 0.9 S 4 6 2 3 1022.8 1022.5 0.0
22/10:30pm 7.5 4.7 5.1 85 1.1 S 9 9 5 5 1022.6 1022.2 0.0
22/10:00pm 7.7 6.1 4.5 80 1.4 S 2 6 1 3 1022.6 1022.2 0.0
22/09:30pm 8.7 6.2 4.5 75 1.9 S 7 9 4 5 1022.4 1022.0 0.0
22/09:00pm 9.2 6.6 4.4 72 2.2 S 7 9 4 5 1022.5 1022.1 0.0
22/08:30pm 9.8 6.9 4.4 69 2.5 SSE 9 11 5 6 1022.4 1022.0 0.0
22/08:00pm 10.6 7.3 4.5 66 2.8 S 11 15 6 8 1022.4 1022.0 0.0
22/07:30pm 10.9 8.0 4.8 66 2.9 S 9 13 5 7 1022.2 1021.8 0.0
22/07:00pm 11.1 8.4 5.6 69 2.6 S 9 11 5 6 1022.0 1021.6 0.0
22/06:30pm 11.7 8.5 5.1 64 3.1 SSE 11 15 6 8 1021.4 1021.0 0.0
22/06:00pm 12.7 8.7 4.9 59 3.7 S 15 20 8 11 1021.3 1020.9 0.0
22/05:30pm 13.4 9.3 4.6 55 4.2 S 15 22 8 12 1021.0 1020.5 0.0
22/05:00pm 13.9 10.5 4.2 52 4.6 S 11 15 6 8 1020.7 1020.3 0.0
22/04:30pm 14.3 10.5 3.7 49 5.0 SW 13 17 7 9 1021.0 1020.5 0.0
22/04:00pm 14.6 10.5 4.6 51 4.8 SSW 15 22 8 12 1021.0 1020.5 0.0
22/03:30pm 14.7 11.4 4.7 51 4.8 SSW 11 17 6 9 1021.0 1020.5 0.0
22/03:00pm 14.9 11.6 4.3 49 5.0 S 11 20 6 11 1021.0 1020.5 0.0
22/02:30pm 14.7 10.6 4.4 50 4.9 S 15 26 8 14 1021.0 1020.5 0.0
22/02:00pm 14.7 10.7 4.7 51 4.8 SW 15 24 8 13 1021.1 1020.6 0.0
22/01:30pm 14.1 10.5 5.2 55 4.3 S 13 20 7 11 1021.5 1021.1 0.0
22/01:00pm 15.1 11.3 5.6 53 4.6 S 15 32 8 17 1021.5 1021.1 0.0
22/12:30pm 13.6 9.3 5.3 57 4.0 SW 17 24 9 13 1021.9 1021.5 0.0
22/12:00pm 12.8 9.7 5.7 62 3.4 SSW 11 20 6 11 1022.3 1021.9 0.0
22/11:30am 12.7 8.6 6.1 64 3.2 SSW 17 24 9 13 1022.6 1022.2 0.0
22/11:00am 12.2 7.5 6.0 66 3.0 SSW 20 30 11 16 1023.0 1022.6 0.0
22/10:30am 12.1 7.3 5.7 65 3.1 SSW 20 35 11 19 1023.3 1022.9 0.0

Other Formats:

Comma delimited format used in spreadsheet applications
http://www.bom.gov.au/fwo/IDW60801/IDW60801.99434.axf

JavaScript Object Notation format (JSON) in row-major order
http://www.bom.gov.au/fwo/IDW60801/IDW60801.99434.json